Time;durP1;ratioP1;P1;durP2;ratioP2;P2;SDS_P1;SDS_P2;PMS_P1;PMS_P2;Temp;Humidity;BMP_temperature;BMP_pressure;BME280_temperature;BME280_humidity;BME280_pressure;Samples;Min_cycle;Max_cycle;Signal;HPM_P1;HPM_P2
2023/10/30 00:00:21;;;;;;;12.60;8.70;;;;;;;-145.87;100.00;54973.53;2091325;28;20370;-59
2023/10/30 00:01:23;;;;;;;15.07;9.05;;;;;;;-145.87;100.00;54973.53;2091479;28;20511;-59
2023/10/30 00:02:24;;;;;;;14.98;8.75;;;;;;;-145.87;100.00;54973.53;2091408;28;20048;-59
2023/10/30 00:03:25;;;;;;;14.25;9.18;;;;;;;-145.87;100.00;54973.53;2091424;28;20048;-59
2023/10/30 00:04:26;;;;;;;14.23;8.68;;;;;;;-145.87;100.00;54973.53;2091465;28;20500;-59
2023/10/30 00:05:27;;;;;;;14.77;8.88;;;;;;;-145.87;100.00;54973.53;2091364;28;20045;-59
2023/10/30 00:06:29;;;;;;;15.63;9.10;;;;;;;-145.87;100.00;54973.53;2091256;28;20068;-59
2023/10/30 00:07:30;;;;;;;12.70;8.77;;;;;;;-145.87;100.00;54973.53;2091587;28;20048;-58
2023/10/30 00:08:31;;;;;;;13.23;8.35;;;;;;;-145.87;100.00;54973.53;2091628;28;20053;-58
2023/10/30 00:09:32;;;;;;;12.80;7.88;;;;;;;-145.87;100.00;54973.53;2091259;28;20056;-59
2023/10/30 00:10:34;;;;;;;13.98;8.70;;;;;;;-145.87;100.00;54973.53;2091557;28;20449;-58
2023/10/30 00:11:35;;;;;;;12.40;8.63;;;;;;;-145.87;100.00;54973.53;2091116;28;20066;-58
2023/10/30 00:12:36;;;;;;;12.70;8.23;;;;;;;-145.87;100.00;54973.53;2091385;28;20043;-59
2023/10/30 00:13:37;;;;;;;12.00;8.63;;;;;;;-145.87;100.00;54973.53;2090975;28;20056;-59
2023/10/30 00:14:38;;;;;;;14.90;9.30;;;;;;;-145.87;100.00;54973.53;2091486;28;20409;-59
2023/10/30 00:15:39;;;;;;;12.95;8.70;;;;;;;-145.87;100.00;54973.53;2090668;28;20032;-58
2023/10/30 00:16:40;;;;;;;12.75;9.00;;;;;;;-145.87;100.00;54973.53;2090953;28;20056;-59
2023/10/30 00:17:41;;;;;;;12.73;8.43;;;;;;;-145.87;100.00;54973.53;2091031;28;20049;-59
2023/10/30 00:18:43;;;;;;;14.98;8.70;;;;;;;-145.87;100.00;54973.53;2091364;28;20481;-58
2023/10/30 00:19:44;;;;;;;14.18;8.68;;;;;;;-145.87;100.00;54973.53;2091211;28;20052;-58
2023/10/30 00:20:45;;;;;;;11.95;7.93;;;;;;;-145.87;100.00;54973.53;2091265;28;20053;-58
2023/10/30 00:21:46;;;;;;;13.02;8.23;;;;;;;-145.87;100.00;54973.53;2090933;28;20151;-58
2023/10/30 00:22:47;;;;;;;12.50;8.63;;;;;;;-145.87;100.00;54973.53;2090995;28;20426;-58
2023/10/30 00:23:48;;;;;;;11.35;7.95;;;;;;;-145.87;100.00;54973.53;2091086;28;20053;-58
2023/10/30 00:24:49;;;;;;;13.07;8.38;;;;;;;-145.87;100.00;54973.53;2091061;28;20057;-59
2023/10/30 00:25:51;;;;;;;14.15;8.27;;;;;;;-145.87;100.00;54973.53;2091656;28;20049;-58
2023/10/30 00:26:52;;;;;;;12.82;8.98;;;;;;;-145.87;100.00;54973.53;2090801;28;20056;-58
2023/10/30 00:27:56;;;;;;;13.40;8.55;;;;;;;-145.87;100.00;54973.53;2090261;28;20052;-59
2023/10/30 00:28:57;;;;;;;14.13;9.15;;;;;;;-145.87;100.00;54973.53;2091234;28;20060;-59
2023/10/30 00:29:58;;;;;;;12.20;8.93;;;;;;;-145.87;100.00;54973.53;2090319;28;20068;-58
2023/10/30 00:31:00;;;;;;;14.57;9.90;;;;;;;-145.87;100.00;54973.53;2090477;28;20049;-59
2023/10/30 00:32:01;;;;;;;14.05;9.02;;;;;;;-145.87;100.00;54973.53;2090958;28;20053;-59
2023/10/30 00:33:02;;;;;;;16.45;8.88;;;;;;;-145.87;100.00;54973.53;2089818;28;20056;-59
2023/10/30 00:34:09;;;;;;;19.70;10.70;;;;;;;-145.87;100.00;54973.53;2091646;28;20057;-59
2023/10/30 00:35:10;;;;;;;11.60;8.88;;;;;;;-145.87;100.00;54973.53;2091838;28;20048;-59
2023/10/30 00:36:11;;;;;;;16.40;8.75;;;;;;;-145.87;100.00;54973.53;2090709;28;20504;-59
2023/10/30 00:37:13;;;;;;;12.82;8.73;;;;;;;-145.87;100.00;54973.53;2090761;28;20144;-58
2023/10/30 00:38:14;;;;;;;13.27;9.15;;;;;;;-145.87;100.00;54973.53;2090367;28;20053;-59
2023/10/30 00:39:15;;;;;;;13.15;9.07;;;;;;;-145.87;100.00;54973.53;2090113;28;20064;-58
2023/10/30 00:40:16;;;;;;;12.65;8.55;;;;;;;-145.87;100.00;54973.53;2091013;28;20045;-58
2023/10/30 00:41:18;;;;;;;12.10;8.55;;;;;;;-145.87;100.00;54973.53;2091539;28;20481;-58
2023/10/30 00:42:22;;;;;;;12.75;8.75;;;;;;;-145.87;100.00;54973.53;2091481;28;20045;-59
2023/10/30 00:43:23;;;;;;;10.45;7.63;;;;;;;-145.87;100.00;54973.53;2092347;28;20053;-59
2023/10/30 00:44:24;;;;;;;11.00;7.78;;;;;;;-145.87;100.00;54973.53;2092141;28;20053;-68
2023/10/30 00:45:26;;;;;;;12.15;7.47;;;;;;;-145.87;100.00;54973.53;2091213;28;20057;-58
2023/10/30 00:46:27;;;;;;;11.77;7.60;;;;;;;-145.87;100.00;54973.53;2091060;28;20402;-58
2023/10/30 00:47:28;;;;;;;11.73;8.55;;;;;;;-145.87;100.00;54973.53;2091681;28;20040;-59
2023/10/30 00:48:29;;;;;;;14.60;8.25;;;;;;;-145.87;100.00;54973.53;2090552;28;20048;-59
2023/10/30 00:49:31;;;;;;;13.57;7.70;;;;;;;-145.87;100.00;54973.53;2082149;28;20524;-59
2023/10/30 00:50:32;;;;;;;11.18;7.68;;;;;;;-145.87;100.00;54973.53;2082183;28;20048;-59
2023/10/30 00:51:33;;;;;;;12.23;7.88;;;;;;;-145.87;100.00;54973.53;2089927;28;20052;-58
2023/10/30 00:52:34;;;;;;;13.02;8.30;;;;;;;-145.87;100.00;54973.53;2090782;28;20041;-59
2023/10/30 00:53:36;;;;;;;13.57;8.20;;;;;;;-145.87;100.00;54973.53;2090805;28;20068;-59
2023/10/30 00:54:37;;;;;;;11.80;7.70;;;;;;;-145.87;100.00;54973.53;2091032;28;20476;-59
2023/10/30 00:55:40;;;;;;;13.82;8.35;;;;;;;-145.87;100.00;54973.53;2090082;28;20049;-59
2023/10/30 00:56:41;;;;;;;11.73;8.00;;;;;;;-145.87;100.00;54973.53;2090319;28;20048;-59
2023/10/30 00:57:42;;;;;;;13.02;8.27;;;;;;;-145.87;100.00;54973.53;2090226;28;20045;-59
2023/10/30 00:58:44;;;;;;;14.55;8.43;;;;;;;-145.87;100.00;54973.53;2090256;28;20041;-59
2023/10/30 00:59:45;;;;;;;12.68;8.65;;;;;;;-145.87;100.00;54973.53;2082233;28;20048;-59
2023/10/30 01:00:47;;;;;;;10.05;7.32;;;;;;;-145.87;100.00;54973.53;2081398;28;20429;-59
2023/10/30 01:01:48;;;;;;;11.90;7.93;;;;;;;-145.87;100.00;54973.53;2090014;28;20053;-58
2023/10/30 01:02:50;;;;;;;13.23;8.45;;;;;;;-145.87;100.00;54973.53;2090351;28;20424;-59
2023/10/30 01:03:51;;;;;;;10.95;7.80;;;;;;;-145.87;100.00;54973.53;2090897;28;20041;-59
2023/10/30 01:04:52;;;;;;;13.32;8.68;;;;;;;-145.87;100.00;54973.53;2090793;28;20048;-59
2023/10/30 01:05:57;;;;;;;12.93;9.02;;;;;;;-145.87;100.00;54973.53;2090573;28;20477;-59
2023/10/30 01:06:58;;;;;;;15.48;9.15;;;;;;;-145.87;100.00;54973.53;2090519;28;20500;-58
2023/10/30 01:07:59;;;;;;;15.18;8.18;;;;;;;-145.87;100.00;54973.53;2090485;28;20503;-59
2023/10/30 01:09:00;;;;;;;11.57;8.25;;;;;;;-145.87;100.00;54973.53;2089981;28;20060;-59
2023/10/30 01:10:01;;;;;;;11.18;8.18;;;;;;;-145.87;100.00;54973.53;2089936;28;20052;-58
2023/10/30 01:11:03;;;;;;;14.25;8.52;;;;;;;-145.87;100.00;54973.53;2090741;28;20057;-58
2023/10/30 01:12:05;;;;;;;12.70;8.32;;;;;;;-145.87;100.00;54973.53;2090094;28;20048;-59
2023/10/30 01:13:06;;;;;;;13.85;8.68;;;;;;;-145.87;100.00;54973.53;2090153;28;20056;-59
2023/10/30 01:14:08;;;;;;;12.00;8.38;;;;;;;-145.87;100.00;54973.53;2090481;28;20060;-59
2023/10/30 01:15:09;;;;;;;11.63;8.07;;;;;;;-145.87;100.00;54973.53;2089734;28;20512;-59
2023/10/30 01:16:10;;;;;;;12.38;8.68;;;;;;;-145.87;100.00;54973.53;2090111;28;20053;-58
2023/10/30 01:17:11;;;;;;;12.45;7.97;;;;;;;-145.87;100.00;54973.53;2090727;28;20053;-58
2023/10/30 01:18:13;;;;;;;11.70;7.97;;;;;;;-145.87;100.00;54973.53;2090769;28;20473;-58
2023/10/30 01:19:14;;;;;;;11.02;8.07;;;;;;;-145.87;100.00;54973.53;2090485;28;20053;-59
2023/10/30 01:20:15;;;;;;;12.93;8.85;;;;;;;-145.87;100.00;54973.53;2090348;28;20068;-59
2023/10/30 01:21:17;;;;;;;11.65;7.85;;;;;;;-145.87;100.00;54973.53;2090665;28;20489;-59
2023/10/30 01:22:18;;;;;;;13.05;9.02;;;;;;;-145.87;100.00;54973.53;2090384;28;20053;-58
2023/10/30 01:23:19;;;;;;;13.57;8.40;;;;;;;-145.87;100.00;54973.53;2090744;28;20052;-58
2023/10/30 01:24:20;;;;;;;13.90;8.93;;;;;;;-145.87;100.00;54973.53;2090855;28;20068;-58
2023/10/30 01:25:22;;;;;;;15.63;8.52;;;;;;;-145.87;100.00;54973.53;2090371;28;20504;-58
2023/10/30 01:26:23;;;;;;;12.75;7.80;;;;;;;-145.87;100.00;54973.53;2090599;28;20068;-58
2023/10/30 01:27:25;;;;;;;11.57;8.00;;;;;;;-145.87;100.00;54973.53;2090996;28;20060;-59
2023/10/30 01:28:26;;;;;;;13.25;8.82;;;;;;;-145.87;100.00;54973.53;2090601;28;20393;-58
2023/10/30 01:29:28;;;;;;;12.50;8.88;;;;;;;-145.87;100.00;54973.53;2090622;28;20059;-59
2023/10/30 01:30:29;;;;;;;14.52;8.55;;;;;;;-145.87;100.00;54973.53;2089987;28;20053;-59
2023/10/30 01:31:30;;;;;;;12.98;8.38;;;;;;;-145.87;100.00;54973.53;2089700;28;20140;-58
2023/10/30 01:32:31;;;;;;;12.95;8.48;;;;;;;-145.87;100.00;54973.53;2091218;28;20056;-59
2023/10/30 01:33:32;;;;;;;11.85;8.55;;;;;;;-145.87;100.00;54973.53;2090640;28;20057;-58
2023/10/30 01:34:34;;;;;;;12.50;8.68;;;;;;;-145.87;100.00;54973.53;2090546;28;20044;-58
2023/10/30 01:35:36;;;;;;;13.07;8.95;;;;;;;-145.87;100.00;54973.53;2089628;28;20464;-59
2023/10/30 01:36:37;;;;;;;14.35;9.02;;;;;;;-145.87;100.00;54973.53;2089731;28;20049;-59
2023/10/30 01:37:39;;;;;;;12.85;8.93;;;;;;;-145.87;100.00;54973.53;2089597;28;20060;-59
2023/10/30 01:38:40;;;;;;;12.45;8.68;;;;;;;-145.87;100.00;54973.53;2089625;28;20055;-59
2023/10/30 01:39:43;;;;;;;15.02;9.05;;;;;;;-145.87;100.00;54973.53;2090315;28;20493;-58
2023/10/30 01:40:48;;;;;;;11.23;8.73;;;;;;;-145.87;100.00;54973.53;2089642;28;20468;-59
2023/10/30 01:41:49;;;;;;;15.30;9.50;;;;;;;-145.87;100.00;54973.53;2090498;28;20074;-58
2023/10/30 01:42:50;;;;;;;14.55;10.00;;;;;;;-145.87;100.00;54973.53;2089353;28;20056;-59
2023/10/30 01:43:51;;;;;;;14.93;10.15;;;;;;;-145.87;100.00;54973.53;2089933;28;20041;-59
2023/10/30 01:44:56;;;;;;;13.05;10.23;;;;;;;-145.87;100.00;54973.53;2090457;28;20056;-59
2023/10/30 01:45:57;;;;;;;14.57;11.18;;;;;;;-145.87;100.00;54973.53;2090512;28;20059;-58
2023/10/30 01:46:58;;;;;;;13.77;10.20;;;;;;;-145.87;100.00;54973.53;2090503;28;20477;-59
2023/10/30 01:48:00;;;;;;;18.45;11.80;;;;;;;-145.87;100.00;54973.53;2090542;28;20049;-59
2023/10/30 01:49:01;;;;;;;15.50;10.48;;;;;;;-145.87;100.00;54973.53;2097738;28;20056;-59
2023/10/30 01:50:02;;;;;;;14.88;9.98;;;;;;;-145.87;100.00;54973.53;2081889;28;20107;-58
2023/10/30 01:51:04;;;;;;;17.10;9.80;;;;;;;-145.87;100.00;54973.53;2081924;28;20061;-58
2023/10/30 01:52:05;;;;;;;15.75;10.55;;;;;;;-145.87;100.00;54973.53;2081832;28;20064;-58
2023/10/30 01:53:06;;;;;;;17.73;10.25;;;;;;;-145.87;100.00;54973.53;2081254;28;20049;-58
2023/10/30 01:54:08;;;;;;;15.40;10.18;;;;;;;-145.87;100.00;54973.53;2090384;28;20040;-59
2023/10/30 01:55:09;;;;;;;12.68;9.40;;;;;;;-145.87;100.00;54973.53;2081333;28;20528;-58
2023/10/30 01:56:10;;;;;;;15.10;10.18;;;;;;;-145.87;100.00;54973.53;2080965;28;20049;-59
2023/10/30 01:57:11;;;;;;;16.67;10.90;;;;;;;-145.87;100.00;54973.53;2088438;28;20060;-58
2023/10/30 01:58:12;;;;;;;17.52;11.25;;;;;;;-145.87;100.00;54973.53;2081050;28;20049;-58
2023/10/30 01:59:13;;;;;;;19.13;10.82;;;;;;;-145.87;100.00;54973.53;2065563;28;20046;-57
2023/10/30 02:00:15;;;;;;;15.30;10.80;;;;;;;-145.87;100.00;54973.53;2065450;28;20514;-58
2023/10/30 02:01:16;;;;;;;16.52;11.18;;;;;;;-145.87;100.00;54973.53;2089899;28;20057;-59
2023/10/30 02:02:19;;;;;;;14.07;10.70;;;;;;;-145.87;100.00;54973.53;2097908;28;20056;-59
2023/10/30 02:03:20;;;;;;;15.48;10.43;;;;;;;-145.87;100.00;54973.53;2090547;28;20045;-58
2023/10/30 02:04:21;;;;;;;16.15;10.82;;;;;;;-145.87;100.00;54973.53;2089933;28;20052;-59
2023/10/30 02:05:22;;;;;;;12.68;10.30;;;;;;;-145.87;100.00;54973.53;2089835;28;20065;-59
2023/10/30 02:06:23;;;;;;;15.20;11.02;;;;;;;-145.87;100.00;54973.53;2090517;28;20044;-58
2023/10/30 02:07:24;;;;;;;15.90;11.00;;;;;;;-145.87;100.00;54973.53;2090350;28;20044;-58
2023/10/30 02:08:25;;;;;;;14.13;10.75;;;;;;;-145.87;100.00;54973.53;2090498;28;20037;-58
2023/10/30 02:09:26;;;;;;;14.50;10.65;;;;;;;-145.87;100.00;54973.53;2090117;28;20060;-57
2023/10/30 02:10:27;;;;;;;16.60;10.63;;;;;;;-145.87;100.00;54973.53;2089228;28;20053;-57
2023/10/30 02:11:29;;;;;;;16.15;10.38;;;;;;;-145.87;100.00;54973.53;2081612;28;20505;-59
2023/10/30 02:12:30;;;;;;;16.13;11.38;;;;;;;-145.87;100.00;54973.53;2089265;28;20048;-59
2023/10/30 02:13:31;;;;;;;17.77;10.77;;;;;;;-145.87;100.00;54973.53;2090276;28;20405;-58
2023/10/30 02:14:33;;;;;;;15.75;11.30;;;;;;;-145.87;100.00;54973.53;2090269;28;20056;-56
2023/10/30 02:15:34;;;;;;;15.63;11.75;;;;;;;-145.87;100.00;54973.53;2090282;28;20489;-58
2023/10/30 02:16:35;;;;;;;14.65;10.85;;;;;;;-145.87;100.00;54973.53;2090399;28;20052;-59
2023/10/30 02:17:36;;;;;;;14.85;10.85;;;;;;;-145.87;100.00;54973.53;2090250;28;20052;-59
2023/10/30 02:18:37;;;;;;;13.13;10.25;;;;;;;-145.87;100.00;54973.53;2080363;28;20111;-58
2023/10/30 02:19:38;;;;;;;18.50;11.40;;;;;;;-145.87;100.00;54973.53;2081645;28;20053;-59
2023/10/30 02:20:40;;;;;;;15.90;10.73;;;;;;;-145.87;100.00;54973.53;2081305;28;20045;-59
2023/10/30 02:21:41;;;;;;;15.35;10.48;;;;;;;-145.87;100.00;54973.53;2081091;28;20046;-58
2023/10/30 02:22:42;;;;;;;15.38;9.75;;;;;;;-145.87;100.00;54973.53;2088710;28;20091;-58
2023/10/30 02:23:43;;;;;;;15.43;10.80;;;;;;;-145.87;100.00;54973.53;2089436;28;20056;-58
2023/10/30 02:24:45;;;;;;;13.55;10.20;;;;;;;-145.87;100.00;54973.53;2089270;28;20393;-59
2023/10/30 02:25:46;;;;;;;17.13;11.75;;;;;;;-145.87;100.00;54973.53;2089306;28;20053;-59
2023/10/30 02:26:47;;;;;;;17.17;10.88;;;;;;;-145.87;100.00;54973.53;2089252;28;20052;-59
2023/10/30 02:27:52;;;;;;;14.32;11.32;;;;;;;-145.87;100.00;54973.53;2089468;28;20513;-58
2023/10/30 02:28:53;;;;;;;13.80;10.48;;;;;;;-145.87;100.00;54973.53;2089668;28;20413;-58
2023/10/30 02:29:54;;;;;;;13.98;10.85;;;;;;;-145.87;100.00;54973.53;2090188;28;20064;-58
2023/10/30 02:30:55;;;;;;;15.90;11.52;;;;;;;-145.87;100.00;54973.53;2090239;28;20481;-58
2023/10/30 02:31:56;;;;;;;16.95;12.48;;;;;;;-145.87;100.00;54973.53;2089777;28;20064;-58
2023/10/30 02:32:58;;;;;;;18.25;12.50;;;;;;;-145.87;100.00;54973.53;2089272;28;20057;-58
2023/10/30 02:34:00;;;;;;;19.80;12.35;;;;;;;-145.87;100.00;54973.53;2089608;28;20048;-58
2023/10/30 02:35:02;;;;;;;16.42;11.90;;;;;;;-145.87;100.00;54973.53;2090267;28;20382;-58
2023/10/30 02:36:03;;;;;;;16.90;12.60;;;;;;;-145.87;100.00;54973.53;2089353;28;20052;-58
2023/10/30 02:37:05;;;;;;;17.50;12.23;;;;;;;-145.87;100.00;54973.53;2089164;28;20049;-59
2023/10/30 02:38:06;;;;;;;17.15;12.00;;;;;;;-145.87;100.00;54973.53;2089026;28;20053;-58
2023/10/30 02:39:08;;;;;;;16.77;12.50;;;;;;;-145.87;100.00;54973.53;2089111;28;20528;-58
2023/10/30 02:40:09;;;;;;;17.38;12.57;;;;;;;-145.87;100.00;54973.53;2089236;28;20056;-58
2023/10/30 02:41:11;;;;;;;15.07;10.93;;;;;;;-145.87;100.00;54973.53;2081066;28;20057;-58
2023/10/30 02:42:12;;;;;;;12.15;10.27;;;;;;;-145.87;100.00;54973.53;2089490;28;20476;-59
2023/10/30 02:43:13;;;;;;;17.25;11.43;;;;;;;-145.87;100.00;54973.53;2088819;28;20052;-59
2023/10/30 02:44:15;;;;;;;13.48;10.85;;;;;;;-145.87;100.00;54973.53;2089588;28;20045;-59
2023/10/30 02:45:16;;;;;;;15.65;12.02;;;;;;;-145.87;100.00;54973.53;2090177;28;20481;-59
2023/10/30 02:46:18;;;;;;;15.88;11.43;;;;;;;-145.87;100.00;54973.53;2090094;28;20055;-59
2023/10/30 02:47:20;;;;;;;17.33;12.02;;;;;;;-145.87;100.00;54973.53;2090126;28;20045;-59
2023/10/30 02:48:21;;;;;;;13.95;10.07;;;;;;;-145.87;100.00;54973.53;2089876;28;20417;-57
2023/10/30 02:49:22;;;;;;;16.67;10.40;;;;;;;-145.87;100.00;54973.53;2089503;28;20525;-59
2023/10/30 02:50:23;;;;;;;14.27;10.00;;;;;;;-145.87;100.00;54973.53;2089226;28;20057;-59
2023/10/30 02:51:25;;;;;;;16.13;10.20;;;;;;;-145.87;100.00;54973.53;2090987;28;20401;-59
2023/10/30 02:52:26;;;;;;;13.85;9.85;;;;;;;-145.87;100.00;54973.53;2090901;28;20061;-58
2023/10/30 02:53:27;;;;;;;12.48;8.45;;;;;;;-145.87;100.00;54973.53;2091130;28;20052;-59
2023/10/30 02:54:28;;;;;;;15.00;10.02;;;;;;;-145.87;100.00;54973.53;2091409;28;20096;-58
2023/10/30 02:55:31;;;;;;;15.38;9.48;;;;;;;-145.87;100.00;54973.53;2092210;28;20049;-58
2023/10/30 02:56:32;;;;;;;12.82;10.10;;;;;;;-145.87;100.00;54973.53;2091557;28;20057;-58
2023/10/30 02:57:34;;;;;;;13.40;10.25;;;;;;;-145.87;100.00;54973.53;2091758;28;20051;-58
2023/10/30 02:58:35;;;;;;;13.13;9.70;;;;;;;-145.87;100.00;54973.53;2091723;28;20044;-58
2023/10/30 02:59:36;;;;;;;11.32;9.05;;;;;;;-145.87;100.00;54973.53;2091720;28;20081;-58
2023/10/30 03:00:38;;;;;;;14.02;9.85;;;;;;;-145.87;100.00;54973.53;2091580;28;20052;-58
2023/10/30 03:01:41;;;;;;;12.85;9.82;;;;;;;-145.87;100.00;54973.53;2091714;28;20041;-58
2023/10/30 03:02:42;;;;;;;13.13;8.88;;;;;;;-145.87;100.00;54973.53;2091571;28;20055;-58
2023/10/30 03:03:43;;;;;;;13.02;8.40;;;;;;;-145.87;100.00;54973.53;2091853;28;20063;-59
2023/10/30 03:04:44;;;;;;;13.60;8.90;;;;;;;-145.87;100.00;54973.53;2091780;28;20052;-58
2023/10/30 03:05:45;;;;;;;11.13;8.55;;;;;;;-145.87;100.00;54973.53;2091432;28;20053;-59
2023/10/30 03:06:46;;;;;;;12.25;9.18;;;;;;;-145.87;100.00;54973.53;2092041;28;20037;-58
2023/10/30 03:07:47;;;;;;;13.60;9.45;;;;;;;-145.87;100.00;54973.53;2091541;28;20229;-59
2023/10/30 03:08:48;;;;;;;14.50;8.63;;;;;;;-145.87;100.00;54973.53;2091685;28;20060;-59
2023/10/30 03:09:50;;;;;;;11.40;8.98;;;;;;;-145.87;100.00;54973.53;2090846;28;20053;-58
2023/10/30 03:10:51;;;;;;;12.32;8.43;;;;;;;-145.87;100.00;54973.53;2091027;28;20052;-59
2023/10/30 03:11:52;;;;;;;12.90;8.65;;;;;;;-145.87;100.00;54973.53;2091142;28;20040;-58
2023/10/30 03:12:53;;;;;;;10.52;8.27;;;;;;;-145.87;100.00;54973.53;2090574;28;20049;-59
2023/10/30 03:13:54;;;;;;;14.38;8.95;;;;;;;-145.87;100.00;54973.53;2091519;28;20056;-57
2023/10/30 03:14:56;;;;;;;13.55;8.90;;;;;;;-145.87;100.00;54973.53;2091781;28;20469;-58
2023/10/30 03:15:57;;;;;;;12.52;9.15;;;;;;;-145.87;100.00;54973.53;2091367;28;20469;-56
2023/10/30 03:16:58;;;;;;;13.25;8.90;;;;;;;-145.87;100.00;54973.53;2091110;28;20053;-58
2023/10/30 03:18:01;;;;;;;14.43;9.25;;;;;;;-145.87;100.00;54973.53;2091037;28;20433;-57
2023/10/30 03:19:02;;;;;;;12.98;8.80;;;;;;;-145.87;100.00;54973.53;2090890;28;20049;-58
2023/10/30 03:20:04;;;;;;;13.38;9.13;;;;;;;-145.87;100.00;54973.53;2091344;28;20060;-56
2023/10/30 03:21:05;;;;;;;11.07;8.55;;;;;;;-145.87;100.00;54973.53;2091282;28;20404;-59
2023/10/30 03:22:06;;;;;;;16.73;10.27;;;;;;;-145.87;100.00;54973.53;2090991;28;20053;-58
2023/10/30 03:23:07;;;;;;;13.00;10.00;;;;;;;-145.87;100.00;54973.53;2091231;28;20064;-56
2023/10/30 03:24:09;;;;;;;15.23;11.00;;;;;;;-145.87;100.00;54973.53;2091137;28;20060;-56
2023/10/30 03:25:10;;;;;;;16.30;10.80;;;;;;;-145.87;100.00;54973.53;2090444;28;20060;-58
2023/10/30 03:26:11;;;;;;;13.70;10.63;;;;;;;-145.87;100.00;54973.53;2091766;28;20481;-59
2023/10/30 03:27:13;;;;;;;16.63;10.38;;;;;;;-145.87;100.00;54973.53;2091537;28;20048;-57
2023/10/30 03:28:14;;;;;;;17.20;10.52;;;;;;;-145.87;100.00;54973.53;2091617;28;20409;-59
2023/10/30 03:29:15;;;;;;;16.50;10.52;;;;;;;-145.87;100.00;54973.53;2090742;28;20436;-58
2023/10/30 03:30:16;;;;;;;13.68;10.25;;;;;;;-145.87;100.00;54973.53;2091206;28;20061;-59
2023/10/30 03:31:17;;;;;;;12.48;8.88;;;;;;;-145.87;100.00;54973.53;2091930;28;20048;-58
2023/10/30 03:32:18;;;;;;;11.50;8.95;;;;;;;-145.87;100.00;54973.53;2091561;28;20404;-58
2023/10/30 03:33:20;;;;;;;13.55;10.05;;;;;;;-145.87;100.00;54973.53;2091441;28;20033;-59
2023/10/30 03:34:23;;;;;;;15.95;11.60;;;;;;;-145.87;100.00;54973.53;2091551;28;20048;-58
2023/10/30 03:35:25;;;;;;;14.18;10.07;;;;;;;-145.87;100.00;54973.53;2091601;28;20488;-59
2023/10/30 03:36:26;;;;;;;14.02;9.90;;;;;;;-145.87;100.00;54973.53;2091470;28;20045;-58
2023/10/30 03:37:27;;;;;;;15.45;10.82;;;;;;;-145.87;100.00;54973.53;2091441;28;20055;-58
2023/10/30 03:38:28;;;;;;;17.30;11.68;;;;;;;-145.87;100.00;54973.53;2091536;28;20480;-58
2023/10/30 03:39:29;;;;;;;11.45;9.85;;;;;;;-145.87;100.00;54973.53;2091529;28;20057;-58
2023/10/30 03:40:31;;;;;;;13.13;9.80;;;;;;;-145.87;100.00;54973.53;2091693;28;20048;-58
2023/10/30 03:41:32;;;;;;;13.40;9.25;;;;;;;-145.87;100.00;54973.53;2091633;28;20052;-58
2023/10/30 03:42:33;;;;;;;15.63;9.60;;;;;;;-145.87;100.00;54973.53;2091748;28;20044;-58
2023/10/30 03:43:34;;;;;;;13.05;9.98;;;;;;;-145.87;100.00;54973.53;2091277;28;20056;-58
2023/10/30 03:44:35;;;;;;;13.18;8.90;;;;;;;-145.87;100.00;54973.53;2091513;28;20041;-58
2023/10/30 03:45:37;;;;;;;13.35;9.32;;;;;;;-145.87;100.00;54973.53;2091520;28;20037;-59
2023/10/30 03:46:38;;;;;;;13.80;9.70;;;;;;;-145.87;100.00;54973.53;2091768;28;20064;-58
2023/10/30 03:47:40;;;;;;;13.10;9.05;;;;;;;-145.87;100.00;54973.53;2090761;28;20053;-58
2023/10/30 03:48:42;;;;;;;12.00;8.68;;;;;;;-145.87;100.00;54973.53;2090942;28;20041;-58
2023/10/30 03:49:43;;;;;;;12.35;9.20;;;;;;;-145.87;100.00;54973.53;2091050;28;20041;-58
2023/10/30 03:50:48;;;;;;;14.25;9.07;;;;;;;-145.87;100.00;54973.53;2090898;28;20048;-59
2023/10/30 03:51:49;;;;;;;14.60;10.77;;;;;;;-145.87;100.00;54973.53;2090864;28;20056;-58
2023/10/30 03:52:51;;;;;;;10.68;9.35;;;;;;;-145.87;100.00;54973.53;2091085;28;20064;-58
2023/10/30 03:53:52;;;;;;;14.63;10.10;;;;;;;-145.87;100.00;54973.53;2091143;28;20060;-58
2023/10/30 03:54:54;;;;;;;11.23;8.55;;;;;;;-145.87;100.00;54973.53;2091648;28;20378;-58
2023/10/30 03:55:55;;;;;;;13.25;9.80;;;;;;;-145.87;100.00;54973.53;2091342;28;20064;-58
2023/10/30 03:56:56;;;;;;;13.18;10.02;;;;;;;-145.87;100.00;54973.53;2091055;28;20485;-58
2023/10/30 03:57:57;;;;;;;15.65;9.60;;;;;;;-145.87;100.00;54973.53;2091513;28;20053;-58
2023/10/30 03:58:59;;;;;;;13.35;10.00;;;;;;;-145.87;100.00;54973.53;2091077;28;20052;-58
2023/10/30 04:00:00;;;;;;;16.92;10.85;;;;;;;-145.87;100.00;54973.53;2091198;28;20481;-59
2023/10/30 04:01:05;;;;;;;15.18;10.65;;;;;;;-145.87;100.00;54973.53;2094381;28;20048;-58
2023/10/30 04:02:06;;;;;;;17.23;11.65;;;;;;;-145.87;100.00;54973.53;2091282;28;20390;-59
2023/10/30 04:03:08;;;;;;;13.77;10.15;;;;;;;-145.87;100.00;54973.53;2091351;28;20060;-59
2023/10/30 04:04:09;;;;;;;13.98;11.35;;;;;;;-145.87;100.00;54973.53;2091564;28;20049;-58
2023/10/30 04:05:10;;;;;;;14.07;10.07;;;;;;;-145.87;100.00;54973.53;2091394;28;20044;-58
2023/10/30 04:06:12;;;;;;;13.05;9.95;;;;;;;-145.87;100.00;54973.53;2091030;28;20053;-58
2023/10/30 04:07:13;;;;;;;17.80;10.85;;;;;;;-145.87;100.00;54973.53;2091422;28;20048;-58
2023/10/30 04:08:14;;;;;;;16.33;10.23;;;;;;;-145.87;100.00;54973.53;2091687;28;20057;-58
2023/10/30 04:09:15;;;;;;;13.10;10.57;;;;;;;-145.87;100.00;54973.53;2091280;28;20064;-58
2023/10/30 04:10:16;;;;;;;12.85;10.43;;;;;;;-145.87;100.00;54973.53;2092205;28;20056;-58
2023/10/30 04:11:18;;;;;;;15.45;10.52;;;;;;;-145.87;100.00;54973.53;2091360;28;20056;-58
2023/10/30 04:12:22;;;;;;;14.75;10.63;;;;;;;-145.87;100.00;54973.53;2091375;28;20045;-58
2023/10/30 04:13:23;;;;;;;15.02;11.48;;;;;;;-145.87;100.00;54973.53;2091383;28;20064;-58
2023/10/30 04:14:24;;;;;;;14.05;11.63;;;;;;;-145.87;100.00;54973.53;2091078;28;20131;-58
2023/10/30 04:15:25;;;;;;;12.60;10.32;;;;;;;-145.87;100.00;54973.53;2091184;28;20049;-58
2023/10/30 04:16:26;;;;;;;17.55;11.15;;;;;;;-145.87;100.00;54973.53;2091365;28;20504;-58
2023/10/30 04:17:28;;;;;;;17.63;13.57;;;;;;;-145.87;100.00;54973.53;2091390;28;20040;-58
2023/10/30 04:18:29;;;;;;;16.98;11.20;;;;;;;-145.87;100.00;54973.53;2092122;28;20049;-61
2023/10/30 04:19:30;;;;;;;17.95;12.15;;;;;;;-145.87;100.00;54973.53;2092203;28;20135;-61
2023/10/30 04:20:31;;;;;;;16.02;12.20;;;;;;;-145.87;100.00;54973.53;2091967;28;20049;-58
2023/10/30 04:21:32;;;;;;;15.80;12.18;;;;;;;-145.87;100.00;54973.53;2092497;28;20064;-61
2023/10/30 04:22:33;;;;;;;16.58;11.77;;;;;;;-145.87;100.00;54973.53;2092802;28;20385;-58
2023/10/30 04:23:36;;;;;;;16.58;11.50;;;;;;;-145.87;100.00;54973.53;2091590;28;20056;-59
2023/10/30 04:24:37;;;;;;;17.38;12.77;;;;;;;-145.87;100.00;54973.53;2091540;28;20071;-58
2023/10/30 04:25:38;;;;;;;17.98;11.70;;;;;;;-145.87;100.00;54973.53;2091396;28;20045;-58
2023/10/30 04:26:39;;;;;;;17.60;12.52;;;;;;;-145.87;100.00;54973.53;2091351;28;20060;-58
2023/10/30 04:27:40;;;;;;;16.20;12.60;;;;;;;-145.87;100.00;54973.53;2091091;28;20060;-58
2023/10/30 04:28:41;;;;;;;16.50;13.35;;;;;;;-145.87;100.00;54973.53;2091103;28;20037;-58
2023/10/30 04:29:43;;;;;;;18.58;12.02;;;;;;;-145.87;100.00;54973.53;2091285;28;20484;-59
2023/10/30 04:30:44;;;;;;;18.02;12.45;;;;;;;-145.87;100.00;54973.53;2091131;28;20037;-58
2023/10/30 04:31:45;;;;;;;16.92;13.63;;;;;;;-145.87;100.00;54973.53;2091313;28;20392;-58
2023/10/30 04:32:46;;;;;;;18.95;13.45;;;;;;;-145.87;100.00;54973.53;2091013;28;20048;-58
2023/10/30 04:33:47;;;;;;;16.67;13.02;;;;;;;-145.87;100.00;54973.53;2091416;28;20049;-58